Time,TemperatureF,DewpointF,PressureIn,WindDirection,WindDirectionDegrees,WindSpeedMPH,WindSpeedGustMPH,Humidity,HourlyPrecipIn,Conditions,Clouds,dailyrainin,SoftwareType,DateUTC
2013-10-26 00:04:00,44.4,29.7,30.20,ESE,104,1.0,2.0,56,0.00,,,0.00,Wunderground v.1.15,2013-10-26 05:04:00,
2013-10-26 00:14:00,44.3,29.6,30.20,East,93,1.0,2.0,56,0.00,,,0.00,Wunderground v.1.15,2013-10-26 05:14:00,
2013-10-26 00:19:00,44.3,29.6,30.20,ESE,114,1.0,1.0,56,0.00,,,0.00,Wunderground v.1.15,2013-10-26 05:19:00,
2013-10-26 00:29:00,44.1,29.8,30.20,ESE,119,1.0,1.0,57,0.00,,,0.00,Wunderground v.1.15,2013-10-26 05:29:00,
2013-10-26 00:34:00,44.0,29.7,30.20,SW,221,1.0,2.0,57,0.00,,,0.00,Wunderground v.1.15,2013-10-26 05:34:00,
2013-10-26 00:39:00,43.9,30.1,30.20,SE,124,0.0,2.0,58,0.00,,,0.00,Wunderground v.1.15,2013-10-26 05:39:00,
2013-10-26 00:44:00,43.9,30.5,30.20,ESE,114,0.0,2.0,59,0.00,,,0.00,Wunderground v.1.15,2013-10-26 05:44:00,
2013-10-26 00:54:00,44.0,30.2,30.20,ESE,108,1.0,2.0,58,0.00,,,0.00,Wunderground v.1.15,2013-10-26 05:54:00,
2013-10-26 01:04:00,43.7,30.3,30.19,ESE,117,0.0,2.0,59,0.00,,,0.00,Wunderground v.1.15,2013-10-26 06:04:00,
2013-10-26 01:14:00,43.6,30.2,30.19,ESE,103,1.0,2.0,59,0.00,,,0.00,Wunderground v.1.15,2013-10-26 06:14:00,
2013-10-26 01:19:00,43.5,30.5,30.19,SSE,152,1.0,2.0,60,0.00,,,0.00,Wunderground v.1.15,2013-10-26 06:19:00,
2013-10-26 01:29:00,43.3,30.3,30.19,South,172,1.0,1.0,60,0.00,,,0.00,Wunderground v.1.15,2013-10-26 06:29:00,
2013-10-26 01:39:00,43.5,30.9,30.19,SSE,160,0.0,2.0,61,0.00,,,0.00,Wunderground v.1.15,2013-10-26 06:39:00,
2013-10-26 01:49:00,44.0,31.0,30.19,ESE,115,1.0,2.0,60,0.00,,,0.00,Wunderground v.1.15,2013-10-26 06:49:00,
2013-10-26 01:59:00,44.5,31.1,30.18,East,95,1.0,1.0,59,0.00,,,0.00,Wunderground v.1.15,2013-10-26 06:59:00,
2013-10-26 02:04:00,44.6,31.6,30.18,SSE,160,1.0,2.0,60,0.00,,,0.00,Wunderground v.1.15,2013-10-26 07:04:00,
2013-10-26 02:14:00,44.6,31.6,30.18,SE,125,0.0,2.0,60,0.00,,,0.00,Wunderground v.1.15,2013-10-26 07:14:00,
2013-10-26 02:19:00,44.8,31.8,30.18,East,101,1.0,2.0,60,0.00,,,0.00,Wunderground v.1.15,2013-10-26 07:19:00,
2013-10-26 02:29:00,45.2,32.1,30.18,SE,126,1.0,1.0,60,0.00,,,0.00,Wunderground v.1.15,2013-10-26 07:29:00,
2013-10-26 02:39:00,45.3,32.2,30.18,SE,128,1.0,1.0,60,0.00,,,0.00,Wunderground v.1.15,2013-10-26 07:39:00,
2013-10-26 02:49:00,44.7,32.1,30.18,SE,128,0.0,2.0,61,0.00,,,0.00,Wunderground v.1.15,2013-10-26 07:49:00,
2013-10-26 02:59:00,43.8,32.4,30.18,ESE,105,0.0,2.0,64,0.00,,,0.00,Wunderground v.1.15,2013-10-26 07:59:00,
2013-10-26 03:09:00,43.0,32.8,30.18,SE,124,0.0,2.0,67,0.00,,,0.00,Wunderground v.1.15,2013-10-26 08:09:00,
2013-10-26 03:19:00,42.3,32.8,30.18,ESE,120,0.0,2.0,69,0.00,,,0.00,Wunderground v.1.15,2013-10-26 08:19:00,
2013-10-26 03:29:00,42.0,32.6,30.18,ESE,117,0.0,2.0,69,0.00,,,0.00,Wunderground v.1.15,2013-10-26 08:29:00,
2013-10-26 03:39:00,42.3,32.5,30.17,SE,131,0.0,2.0,68,0.00,,,0.00,Wunderground v.1.15,2013-10-26 08:39:00,
2013-10-26 03:49:00,42.4,32.6,30.17,ESE,109,0.0,2.0,68,0.00,,,0.00,Wunderground v.1.15,2013-10-26 08:49:00,
2013-10-26 03:59:00,42.6,32.4,30.16,ESE,110,0.0,2.0,67,0.00,,,0.00,Wunderground v.1.15,2013-10-26 08:59:00,
2013-10-26 04:09:00,42.8,33.0,30.16,SSE,153,1.0,2.0,68,0.00,,,0.00,Wunderground v.1.15,2013-10-26 09:09:00,
2013-10-26 04:19:00,42.8,32.6,30.15,ESE,114,0.0,2.0,67,0.00,,,0.00,Wunderground v.1.15,2013-10-26 09:19:00,
2013-10-26 04:29:00,42.9,33.1,30.16,ESE,110,1.0,3.0,68,0.00,,,0.00,Wunderground v.1.15,2013-10-26 09:29:00,
2013-10-26 04:39:00,42.7,33.2,30.15,ESE,117,0.0,2.0,69,0.00,,,0.00,Wunderground v.1.15,2013-10-26 09:39:00,
2013-10-26 04:49:00,42.5,33.4,30.15,ESE,109,0.0,2.0,70,0.00,,,0.00,Wunderground v.1.15,2013-10-26 09:49:00,
2013-10-26 04:59:00,42.3,33.2,30.14,ESE,115,0.0,2.0,70,0.00,,,0.00,Wunderground v.1.15,2013-10-26 09:59:00,
2013-10-26 05:09:00,42.1,33.7,30.14,ESE,108,0.0,2.0,72,0.00,,,0.00,Wunderground v.1.15,2013-10-26 10:09:00,
2013-10-26 05:19:00,42.1,33.7,30.14,SE,131,0.0,2.0,72,0.00,,,0.00,Wunderground v.1.15,2013-10-26 10:19:00,
2013-10-26 05:29:00,43.1,34.0,30.14,ESE,114,1.0,3.0,70,0.00,,,0.00,Wunderground v.1.15,2013-10-26 10:29:00,
2013-10-26 05:39:00,43.6,33.7,30.14,ESE,114,1.0,1.0,68,0.00,,,0.00,Wunderground v.1.15,2013-10-26 10:39:00,
2013-10-26 05:49:00,43.9,34.0,30.14,ESE,114,1.0,1.0,68,0.00,,,0.00,Wunderground v.1.15,2013-10-26 10:49:00,
2013-10-26 05:59:00,43.8,34.3,30.14,ESE,121,1.0,2.0,69,0.00,,,0.00,Wunderground v.1.15,2013-10-26 10:59:00,
2013-10-26 06:09:00,43.7,34.6,30.13,ESE,104,1.0,4.0,70,0.00,,,0.00,Wunderground v.1.15,2013-10-26 11:09:00,
2013-10-26 06:19:00,43.9,34.7,30.13,ESE,107,2.0,2.0,70,0.00,,,0.00,Wunderground v.1.15,2013-10-26 11:19:00,
2013-10-26 06:29:00,44.1,34.9,30.13,ESE,108,2.0,4.0,70,0.00,,,0.00,Wunderground v.1.15,2013-10-26 11:29:00,
2013-10-26 06:39:00,44.0,34.8,30.13,ESE,103,2.0,3.0,70,0.00,,,0.00,Wunderground v.1.15,2013-10-26 11:39:00,
2013-10-26 06:49:00,44.0,35.2,30.13,ESE,108,2.0,2.0,71,0.00,,,0.00,Wunderground v.1.15,2013-10-26 11:49:00,
2013-10-26 06:59:00,44.0,35.2,30.13,South,176,2.0,2.0,71,0.00,,,0.00,Wunderground v.1.15,2013-10-26 11:59:00,
2013-10-26 07:09:00,44.0,35.6,30.12,SSE,150,2.0,2.0,72,0.00,,,0.00,Wunderground v.1.15,2013-10-26 12:09:00,
2013-10-26 07:19:00,44.0,35.6,30.12,SE,124,1.0,1.0,72,0.00,,,0.00,Wunderground v.1.15,2013-10-26 12:19:00,
2013-10-26 07:29:00,43.9,35.8,30.12,ESE,120,2.0,3.0,73,0.00,,,0.00,Wunderground v.1.15,2013-10-26 12:29:00,
2013-10-26 07:39:00,44.0,35.9,30.11,SE,142,2.0,2.0,73,0.00,,,0.00,Wunderground v.1.15,2013-10-26 12:39:00,
2013-10-26 07:49:00,44.3,36.2,30.11,ESE,103,1.0,1.0,73,0.00,,,0.00,Wunderground v.1.15,2013-10-26 12:49:00,
2013-10-26 07:59:00,44.5,36.7,30.12,SSW,197,1.0,1.0,74,0.00,,,0.00,Wunderground v.1.15,2013-10-26 12:59:00,
2013-10-26 08:09:00,44.7,36.9,30.12,SE,127,1.0,1.0,74,0.00,,,0.00,Wunderground v.1.15,2013-10-26 13:09:00,
2013-10-26 08:19:00,44.9,37.5,30.12,South,179,1.0,1.0,75,0.00,,,0.00,Wunderground v.1.15,2013-10-26 13:19:00,
2013-10-26 08:29:00,45.1,37.6,30.12,SW,215,0.0,2.0,75,0.00,,,0.00,Wunderground v.1.15,2013-10-26 13:29:00,
2013-10-26 08:39:00,45.7,38.2,30.12,SSE,152,0.0,2.0,75,0.00,,,0.00,Wunderground v.1.15,2013-10-26 13:39:00,
2013-10-26 08:49:00,47.3,39.1,30.12,ESE,113,1.0,3.0,73,0.00,,,0.00,Wunderground v.1.15,2013-10-26 13:49:00,
2013-10-26 08:59:00,48.6,39.6,30.13,SE,136,1.0,1.0,71,0.00,,,0.00,Wunderground v.1.15,2013-10-26 13:59:00,
2013-10-26 09:09:00,48.6,39.6,30.12,ESE,114,1.0,4.0,71,0.00,,,0.00,Wunderground v.1.15,2013-10-26 14:09:00,
2013-10-26 09:19:00,49.3,40.7,30.13,ESE,108,1.0,2.0,72,0.00,,,0.00,Wunderground v.1.15,2013-10-26 14:19:00,
2013-10-26 09:29:00,50.9,41.5,30.13,SW,225,1.0,1.0,70,0.00,,,0.00,Wunderground v.1.15,2013-10-26 14:29:00,
2013-10-26 09:39:00,52.2,42.0,30.13,South,174,2.0,2.0,68,0.00,,,0.00,Wunderground v.1.15,2013-10-26 14:39:00,
2013-10-26 09:49:00,53.8,42.7,30.13,SSE,162,2.0,2.0,66,0.00,,,0.00,Wunderground v.1.15,2013-10-26 14:49:00,
2013-10-26 09:54:00,54.3,42.8,30.13,ESE,113,2.0,3.0,65,0.00,,,0.00,Wunderground v.1.15,2013-10-26 14:54:00,
2013-10-26 10:04:00,54.9,42.9,30.13,ESE,112,3.0,5.0,64,0.00,,,0.00,Wunderground v.1.15,2013-10-26 15:04:00,
2013-10-26 10:14:00,54.6,43.1,30.13,ESE,112,3.0,5.0,65,0.00,,,0.00,Wunderground v.1.15,2013-10-26 15:14:00,
2013-10-26 10:24:00,55.3,43.7,30.13,West,264,2.0,2.0,65,0.00,,,0.00,Wunderground v.1.15,2013-10-26 15:24:00,
2013-10-26 10:34:00,55.8,44.6,30.13,East,91,2.0,2.0,66,0.00,,,0.00,Wunderground v.1.15,2013-10-26 15:34:00,
2013-10-26 10:44:00,57.3,44.8,30.13,SE,136,3.0,6.0,63,0.00,,,0.00,Wunderground v.1.15,2013-10-26 15:44:00,
2013-10-26 10:49:00,57.6,45.1,30.13,SSE,149,3.0,3.0,63,0.00,,,0.00,Wunderground v.1.15,2013-10-26 15:49:00,
2013-10-26 10:59:00,58.6,46.0,30.12,SSW,196,3.0,3.0,63,0.00,,,0.00,Wunderground v.1.15,2013-10-26 15:59:00,
2013-10-26 11:09:00,59.1,45.7,30.12,ESE,104,3.0,3.0,61,0.00,,,0.00,Wunderground v.1.15,2013-10-26 16:09:00,
2013-10-26 11:19:00,59.8,46.7,30.12,SE,142,3.0,10.0,62,0.00,,,0.00,Wunderground v.1.15,2013-10-26 16:19:00,
2013-10-26 11:29:00,61.2,46.8,30.12,WSW,250,3.0,5.0,59,0.00,,,0.00,Wunderground v.1.15,2013-10-26 16:29:00,
2013-10-26 11:39:00,61.1,46.7,30.11,SW,232,5.0,7.0,59,0.00,,,0.00,Wunderground v.1.15,2013-10-26 16:39:00,
2013-10-26 11:49:00,61.7,47.2,30.11,SSE,152,3.0,4.0,59,0.00,,,0.00,Wunderground v.1.15,2013-10-26 16:49:00,
2013-10-26 11:59:00,62.5,47.1,30.10,SE,129,2.0,3.0,57,0.00,,,0.00,Wunderground v.1.15,2013-10-26 16:59:00,
2013-10-26 12:09:00,62.6,47.1,30.10,SSE,157,3.0,5.0,57,0.00,,,0.00,Wunderground v.1.15,2013-10-26 17:09:00,
2013-10-26 12:19:00,62.8,47.3,30.10,NE,51,2.0,2.0,57,0.00,,,0.00,Wunderground v.1.15,2013-10-26 17:19:00,
2013-10-26 12:29:00,64.1,47.1,30.09,WNW,284,1.0,2.0,54,0.00,,,0.00,Wunderground v.1.15,2013-10-26 17:29:00,
2013-10-26 12:39:00,64.4,46.9,30.09,SW,222,3.0,3.0,53,0.00,,,0.00,Wunderground v.1.15,2013-10-26 17:39:00,
2013-10-26 12:44:00,64.7,48.6,30.08,SSW,212,2.0,3.0,56,0.00,,,0.00,Wunderground v.1.15,2013-10-26 17:44:00,
2013-10-26 12:54:00,64.8,47.8,30.09,SSW,210,3.0,3.0,54,0.00,,,0.00,Wunderground v.1.15,2013-10-26 17:54:00,
2013-10-26 13:04:00,64.9,47.9,30.08,WSW,252,2.0,3.0,54,0.00,,,0.00,Wunderground v.1.15,2013-10-26 18:04:00,
2013-10-26 13:14:00,64.8,47.3,30.08,WSW,252,3.0,3.0,53,0.00,,,0.00,Wunderground v.1.15,2013-10-26 18:14:00,
2013-10-26 13:24:00,65.0,47.9,30.08,West,269,2.0,3.0,54,0.00,,,0.00,Wunderground v.1.15,2013-10-26 18:24:00,
2013-10-26 13:34:00,64.9,47.9,30.07,WNW,291,3.0,3.0,54,0.00,,,0.00,Wunderground v.1.15,2013-10-26 18:34:00,
2013-10-26 13:44:00,65.5,47.4,30.07,West,269,3.0,3.0,52,0.00,,,0.00,Wunderground v.1.15,2013-10-26 18:44:00,
2013-10-26 13:54:00,65.7,48.1,30.07,NW,325,2.0,4.0,53,0.00,,,0.00,Wunderground v.1.15,2013-10-26 18:54:00,
2013-10-26 14:04:00,66.2,47.5,30.06,NE,50,2.0,2.0,51,0.00,,,0.00,Wunderground v.1.15,2013-10-26 19:04:00,
2013-10-26 14:14:00,66.2,48.0,30.06,SW,219,1.0,4.0,52,0.00,,,0.00,Wunderground v.1.15,2013-10-26 19:14:00,
2013-10-26 14:24:00,66.0,47.9,30.06,SW,226,2.0,2.0,52,0.00,,,0.00,Wunderground v.1.15,2013-10-26 19:24:00,
2013-10-26 14:34:00,66.7,46.9,30.06,North,356,1.0,2.0,49,0.00,,,0.00,Wunderground v.1.15,2013-10-26 19:34:00,
2013-10-26 14:44:00,66.6,46.8,30.06,South,186,1.0,2.0,49,0.00,,,0.00,Wunderground v.1.15,2013-10-26 19:44:00,
2013-10-26 14:54:00,66.4,46.7,30.05,South,173,2.0,2.0,49,0.00,,,0.00,Wunderground v.1.15,2013-10-26 19:54:00,
2013-10-26 15:04:00,66.0,45.2,30.05,West,266,2.0,4.0,47,0.00,,,0.00,Wunderground v.1.15,2013-10-26 20:04:00,
2013-10-26 15:14:00,66.1,45.3,30.05,SE,136,2.0,7.0,47,0.00,,,0.00,Wunderground v.1.15,2013-10-26 20:14:00,
2013-10-26 15:19:00,66.0,45.2,30.05,SSE,163,2.0,2.0,47,0.00,,,0.00,Wunderground v.1.15,2013-10-26 20:19:00,
2013-10-26 15:29:00,66.3,46.0,30.04,SE,143,1.0,5.0,48,0.00,,,0.00,Wunderground v.1.15,2013-10-26 20:29:00,
2013-10-26 15:39:00,66.5,45.6,30.04,SW,224,1.0,1.0,47,0.00,,,0.00,Wunderground v.1.15,2013-10-26 20:39:00,
2013-10-26 15:49:00,66.3,46.0,30.04,SW,222,2.0,3.0,48,0.00,,,0.00,Wunderground v.1.15,2013-10-26 20:49:00,
2013-10-26 15:54:00,66.4,44.4,30.04,WSW,255,1.0,3.0,45,0.00,,,0.00,Wunderground v.1.15,2013-10-26 20:54:00,
2013-10-26 16:04:00,66.5,45.1,30.04,West,267,1.0,2.0,46,0.00,,,0.00,Wunderground v.1.15,2013-10-26 21:04:00,
2013-10-26 16:14:00,66.6,45.2,30.04,WNW,297,1.0,2.0,46,0.00,,,0.00,Wunderground v.1.15,2013-10-26 21:14:00,
2013-10-26 16:24:00,66.3,44.9,30.04,WNW,283,1.0,2.0,46,0.00,,,0.00,Wunderground v.1.15,2013-10-26 21:24:00,
2013-10-26 16:34:00,65.9,43.9,30.04,SSE,148,1.0,2.0,45,0.00,,,0.00,Wunderground v.1.15,2013-10-26 21:34:00,
2013-10-26 16:44:00,65.4,44.1,30.04,SSW,203,1.0,2.0,46,0.00,,,0.00,Wunderground v.1.15,2013-10-26 21:44:00,
2013-10-26 16:54:00,65.5,43.6,30.04,West,270,0.0,2.0,45,0.00,,,0.00,Wunderground v.1.15,2013-10-26 21:54:00,
2013-10-26 17:04:00,64.5,43.8,30.04,SW,224,1.0,2.0,47,0.00,,,0.00,Wunderground v.1.15,2013-10-26 22:04:00,
2013-10-26 17:14:00,63.8,43.2,30.05,West,280,0.0,2.0,47,0.00,,,0.00,Wunderground v.1.15,2013-10-26 22:14:00,
2013-10-26 17:24:00,63.1,43.1,30.05,West,267,0.0,2.0,48,0.00,,,0.00,Wunderground v.1.15,2013-10-26 22:24:00,
2013-10-26 17:34:00,62.4,42.4,30.05,West,266,0.0,2.0,48,0.00,,,0.00,Wunderground v.1.15,2013-10-26 22:34:00,
2013-10-26 17:39:00,62.0,42.1,30.05,West,264,0.0,2.0,48,0.00,,,0.00,Wunderground v.1.15,2013-10-26 22:39:00,
2013-10-26 17:49:00,61.5,41.6,30.06,West,260,0.0,2.0,48,0.00,,,0.00,Wunderground v.1.15,2013-10-26 22:49:00,
2013-10-26 17:54:00,61.3,41.4,30.06,WNW,287,1.0,4.0,48,0.00,,,0.00,Wunderground v.1.15,2013-10-26 22:54:00,
2013-10-26 18:04:00,60.4,41.7,30.07,West,271,1.0,2.0,50,0.00,,,0.00,Wunderground v.1.15,2013-10-26 23:04:00,
2013-10-26 18:14:00,59.5,40.3,30.07,NW,305,1.0,4.0,49,0.00,,,0.00,Wunderground v.1.15,2013-10-26 23:14:00,
2013-10-26 18:24:00,58.8,40.2,30.08,West,264,1.0,2.0,50,0.00,,,0.00,Wunderground v.1.15,2013-10-26 23:24:00,
2013-10-26 18:34:00,57.8,38.8,30.09,SW,226,0.0,2.0,49,0.00,,,0.00,Wunderground v.1.15,2013-10-26 23:34:00,
2013-10-26 18:44:00,57.0,38.5,30.09,West,276,0.0,2.0,50,0.00,,,0.00,Wunderground v.1.15,2013-10-26 23:44:00,
2013-10-26 18:54:00,56.3,37.4,30.09,West,277,0.0,2.0,49,0.00,,,0.00,Wunderground v.1.15,2013-10-26 23:54:00,
2013-10-26 19:04:00,55.3,37.0,30.10,West,271,0.0,2.0,50,0.00,,,0.00,Wunderground v.1.15,2013-10-27 00:04:00,
2013-10-26 19:14:00,53.9,37.6,30.10,West,269,0.0,2.0,54,0.00,,,0.00,Wunderground v.1.15,2013-10-27 00:14:00,
2013-10-26 19:24:00,51.8,37.5,30.10,West,269,0.0,2.0,58,0.00,,,0.00,Wunderground v.1.15,2013-10-27 00:24:00,
2013-10-26 19:34:00,50.6,38.1,30.10,West,268,0.0,2.0,62,0.00,,,0.00,Wunderground v.1.15,2013-10-27 00:34:00,
2013-10-26 19:44:00,49.5,37.8,30.11,West,268,0.0,2.0,64,0.00,,,0.00,Wunderground v.1.15,2013-10-27 00:44:00,
2013-10-26 19:54:00,48.3,37.8,30.11,West,269,0.0,2.0,67,0.00,,,0.00,Wunderground v.1.15,2013-10-27 00:54:00,
2013-10-26 20:04:00,47.2,36.8,30.11,West,269,0.0,2.0,67,0.00,,,0.00,Wunderground v.1.15,2013-10-27 01:04:00,
2013-10-26 20:14:00,47.5,37.5,30.11,WNW,297,0.0,2.0,68,0.00,,,0.00,Wunderground v.1.15,2013-10-27 01:14:00,
2013-10-26 20:24:00,49.5,37.0,30.11,WNW,283,0.0,2.0,62,0.00,,,0.00,Wunderground v.1.15,2013-10-27 01:24:00,
2013-10-26 20:34:00,50.4,36.6,30.11,WNW,287,0.0,2.0,59,0.00,,,0.00,Wunderground v.1.15,2013-10-27 01:34:00,
2013-10-26 20:44:00,50.8,35.2,30.12,WNW,283,0.0,2.0,55,0.00,,,0.00,Wunderground v.1.15,2013-10-27 01:44:00,
2013-10-26 20:54:00,50.9,34.8,30.12,West,269,0.0,2.0,54,0.00,,,0.00,Wunderground v.1.15,2013-10-27 01:54:00,
2013-10-26 21:04:00,50.5,34.0,30.12,North,352,0.0,2.0,53,0.00,,,0.00,Wunderground v.1.15,2013-10-27 02:04:00,
2013-10-26 21:09:00,50.3,33.8,30.12,WNW,301,0.0,2.0,53,0.00,,,0.00,Wunderground v.1.15,2013-10-27 02:09:00,
2013-10-26 21:19:00,49.5,34.0,30.12,NW,305,0.0,2.0,55,0.00,,,0.00,Wunderground v.1.15,2013-10-27 02:19:00,
2013-10-26 21:29:00,48.5,33.5,30.12,NW,305,0.0,2.0,56,0.00,,,0.00,Wunderground v.1.15,2013-10-27 02:29:00,
2013-10-26 21:39:00,47.7,33.6,30.12,WNW,288,0.0,2.0,58,0.00,,,0.00,Wunderground v.1.15,2013-10-27 02:39:00,
2013-10-26 21:44:00,47.6,35.2,30.13,WNW,288,0.0,2.0,62,0.00,,,0.00,Wunderground v.1.15,2013-10-27 02:44:00,
2013-10-26 21:54:00,47.3,33.7,30.13,WNW,283,0.0,2.0,59,0.00,,,0.00,Wunderground v.1.15,2013-10-27 02:54:00,
2013-10-26 22:04:00,47.5,33.0,30.13,WNW,302,0.0,2.0,57,0.00,,,0.00,Wunderground v.1.15,2013-10-27 03:04:00,
2013-10-26 22:14:00,47.8,32.4,30.13,West,276,0.0,2.0,55,0.00,,,0.00,Wunderground v.1.15,2013-10-27 03:14:00,
2013-10-26 22:24:00,47.8,32.4,30.14,WSW,252,0.0,2.0,55,0.00,,,0.00,Wunderground v.1.15,2013-10-27 03:24:00,
2013-10-26 22:29:00,47.6,32.2,30.14,WNW,283,0.0,2.0,55,0.00,,,0.00,Wunderground v.1.15,2013-10-27 03:29:00,
2013-10-26 22:34:00,47.5,32.6,30.14,WNW,300,0.0,2.0,56,0.00,,,0.00,Wunderground v.1.15,2013-10-27 03:34:00,
2013-10-26 22:39:00,47.2,32.7,30.14,WNW,283,0.0,2.0,57,0.00,,,0.00,Wunderground v.1.15,2013-10-27 03:39:00,
2013-10-26 22:49:00,46.8,32.8,30.14,WNW,290,0.0,2.0,58,0.00,,,0.00,Wunderground v.1.15,2013-10-27 03:49:00,
2013-10-26 22:59:00,46.9,32.4,30.14,WNW,285,0.0,2.0,57,0.00,,,0.00,Wunderground v.1.15,2013-10-27 03:59:00,
2013-10-26 23:04:00,46.8,32.4,30.14,WNW,290,0.0,2.0,57,0.00,,,0.00,Wunderground v.1.15,2013-10-27 04:04:00,
2013-10-26 23:09:00,46.7,31.8,30.14,WNW,284,0.0,2.0,56,0.00,,,0.00,Wunderground v.1.15,2013-10-27 04:09:00,
2013-10-26 23:14:00,46.5,32.1,30.14,WNW,287,0.0,2.0,57,0.00,,,0.00,Wunderground v.1.15,2013-10-27 04:14:00,
2013-10-26 23:19:00,46.1,31.7,30.14,WNW,290,0.0,2.0,57,0.00,,,0.00,Wunderground v.1.15,2013-10-27 04:19:00,
2013-10-26 23:24:00,45.9,31.9,30.14,West,277,0.0,2.0,58,0.00,,,0.00,Wunderground v.1.15,2013-10-27 04:24:00,
2013-10-26 23:34:00,44.9,32.7,30.14,West,276,0.0,2.0,62,0.00,,,0.00,Wunderground v.1.15,2013-10-27 04:34:00,
2013-10-26 23:44:00,44.1,33.1,30.13,WNW,284,0.0,2.0,65,0.00,,,0.00,Wunderground v.1.15,2013-10-27 04:44:00,
2013-10-26 23:49:00,43.7,32.7,30.13,WNW,284,0.0,2.0,65,0.00,,,0.00,Wunderground v.1.15,2013-10-27 04:49:00,
2013-10-26 23:54:00,43.1,33.3,30.13,WNW,283,0.0,2.0,68,0.00,,,0.00,Wunderground v.1.15,2013-10-27 04:54:00,
2013-10-26 23:59:00,42.1,33.4,30.13,WNW,284,0.0,2.0,71,0.00,,,0.00,Wunderground v.1.15,2013-10-27 04:59:00,